Time;durP1;ratioP1;P1;durP2;ratioP2;P2;SDS_P1;SDS_P2;PMS_P1;PMS_P2;Temp;Humidity;BMP_temperature;BMP_pressure;BME280_temperature;BME280_humidity;BME280_pressure;Samples;Min_cycle;Max_cycle;Signal;HPM_P1;HPM_P2
2023/01/19 00:00:16;;;;;;;22.10;12.40;;;;;;;;;;5033834;28;20207;-65
2023/01/19 00:02:47;;;;;;;21.90;14.02;;;;;;;;;;5032895;28;20211;-65
2023/01/19 00:05:15;;;;;;;22.52;13.18;;;;;;;;;;5032068;28;20205;-64
2023/01/19 00:07:43;;;;;;;21.98;13.73;;;;;;;;;;5034142;28;20209;-63
2023/01/19 00:10:12;;;;;;;24.02;12.82;;;;;;;;;;5033848;28;20209;-63
2023/01/19 00:12:40;;;;;;;23.85;13.95;;;;;;;;;;5034088;28;20275;-64
2023/01/19 00:15:09;;;;;;;20.83;12.63;;;;;;;;;;5033465;28;20294;-64
2023/01/19 00:17:39;;;;;;;22.05;13.18;;;;;;;;;;5034005;28;20196;-63
2023/01/19 00:20:10;;;;;;;18.35;11.77;;;;;;;;;;5033248;28;20205;-63
2023/01/19 00:22:38;;;;;;;20.98;12.98;;;;;;;;;;5033988;28;20221;-63
2023/01/19 00:25:06;;;;;;;18.60;12.85;;;;;;;;;;5033369;28;20556;-63
2023/01/19 00:27:34;;;;;;;20.40;13.43;;;;;;;;;;5033734;28;20552;-64
2023/01/19 00:30:02;;;;;;;21.83;13.20;;;;;;;;;;5034664;28;20197;-64
2023/01/19 00:32:30;;;;;;;20.40;13.65;;;;;;;;;;5039273;28;20225;-65
2023/01/19 00:35:01;;;;;;;24.52;14.80;;;;;;;;;;5059553;28;20200;-65
2023/01/19 00:37:30;;;;;;;22.63;13.68;;;;;;;;;;5059898;28;20271;-65
2023/01/19 00:39:58;;;;;;;21.90;13.65;;;;;;;;;;5056421;28;20300;-64
2023/01/19 00:42:44;;;;;;;21.65;14.10;;;;;;;;;;5049333;28;20200;-65
2023/01/19 00:45:13;;;;;;;16.50;12.23;;;;;;;;;;5048208;28;20203;-65
2023/01/19 00:47:41;;;;;;;18.52;13.57;;;;;;;;;;5057626;28;20577;-64
2023/01/19 00:50:11;;;;;;;22.23;14.02;;;;;;;;;;5038605;28;20202;-64
2023/01/19 00:52:41;;;;;;;20.50;13.82;;;;;;;;;;5037774;28;20224;-64
2023/01/19 00:55:10;;;;;;;30.50;15.85;;;;;;;;;;5037389;28;20201;-64
2023/01/19 00:57:38;;;;;;;23.35;14.07;;;;;;;;;;5037383;28;20206;-65
2023/01/19 01:00:07;;;;;;;23.23;14.35;;;;;;;;;;5037070;28;20206;-64
2023/01/19 01:02:36;;;;;;;24.08;14.13;;;;;;;;;;5035281;28;20201;-65
2023/01/19 01:05:04;;;;;;;20.70;14.50;;;;;;;;;;5036914;28;20213;-64
2023/01/19 01:07:39;;;;;;;20.58;14.25;;;;;;;;;;5036826;28;20212;-65
2023/01/19 01:10:09;;;;;;;22.35;15.02;;;;;;;;;;5040705;28;20185;-65
2023/01/19 01:12:38;;;;;;;20.58;13.38;;;;;;;;;;5044403;28;20205;-65
2023/01/19 01:15:06;;;;;;;28.00;15.57;;;;;;;;;;5039421;28;20217;-65
2023/01/19 01:17:34;;;;;;;24.45;15.07;;;;;;;;;;5053389;28;20185;-64
2023/01/19 01:20:03;;;;;;;19.95;13.13;;;;;;;;;;5043676;28;20203;-64
2023/01/19 01:22:34;;;;;;;19.73;13.45;;;;;;;;;;5055773;28;20220;-65
2023/01/19 01:25:02;;;;;;;21.90;13.43;;;;;;;;;;5042157;28;20211;-65
2023/01/19 01:27:32;;;;;;;21.63;14.23;;;;;;;;;;5036740;28;20205;-64
2023/01/19 01:30:00;;;;;;;23.80;15.15;;;;;;;;;;5037173;28;20209;-64
2023/01/19 01:32:28;;;;;;;27.27;15.00;;;;;;;;;;5036375;28;20312;-64
2023/01/19 01:34:56;;;;;;;24.05;13.00;;;;;;;;;;5037089;28;20209;-64
2023/01/19 01:37:25;;;;;;;25.27;14.40;;;;;;;;;;5052861;28;20205;-64
2023/01/19 01:39:53;;;;;;;28.00;14.18;;;;;;;;;;5057245;28;20204;-64
2023/01/19 01:42:26;;;;;;;22.83;14.05;;;;;;;;;;5056411;28;20205;-64
2023/01/19 01:44:56;;;;;;;18.60;13.88;;;;;;;;;;5056950;28;20192;-64
2023/01/19 01:47:28;;;;;;;19.10;13.85;;;;;;;;;;5056163;28;20197;-64
2023/01/19 01:50:00;;;;;;;22.73;15.05;;;;;;;;;;5056500;28;20192;-64
2023/01/19 01:52:30;;;;;;;23.85;13.25;;;;;;;;;;5055760;28;20209;-64
2023/01/19 01:54:58;;;;;;;22.67;13.20;;;;;;;;;;5055411;28;20546;-64
2023/01/19 01:57:30;;;;;;;26.98;13.13;;;;;;;;;;5055865;28;20636;-64
2023/01/19 02:00:00;;;;;;;20.65;13.30;;;;;;;;;;5056616;28;20285;-65
2023/01/19 02:05:17;;;;;;;23.70;13.77;;;;;;;;;;5054441;28;20189;-63
2023/01/19 02:13:22;;;;;;;18.42;13.27;;;;;;;;;;5043529;28;20213;-63
2023/01/19 02:15:53;;;;;;;18.85;13.32;;;;;;;;;;5017220;28;20225;-63
2023/01/19 02:18:22;;;;;;;21.40;14.50;;;;;;;;;;5035097;28;20193;-63
2023/01/19 02:20:57;;;;;;;21.58;13.38;;;;;;;;;;5035164;28;20202;-63
2023/01/19 02:23:35;;;;;;;21.33;12.85;;;;;;;;;;5034455;28;20625;-65
2023/01/19 02:26:04;;;;;;;15.57;12.35;;;;;;;;;;5035337;28;20194;-63
2023/01/19 02:28:32;;;;;;;22.38;13.73;;;;;;;;;;5034732;28;20280;-63
2023/01/19 02:31:00;;;;;;;21.13;14.75;;;;;;;;;;5034553;28;20572;-63
2023/01/19 02:33:28;;;;;;;20.80;13.52;;;;;;;;;;5051283;28;20231;-64
2023/01/19 02:35:57;;;;;;;23.60;13.18;;;;;;;;;;5054792;28;20200;-63
2023/01/19 02:38:26;;;;;;;21.60;13.65;;;;;;;;;;5045686;28;20673;-63
2023/01/19 02:40:56;;;;;;;22.35;14.15;;;;;;;;;;5033061;28;20197;-63
2023/01/19 02:43:24;;;;;;;22.70;13.93;;;;;;;;;;5041856;28;20667;-63
2023/01/19 02:45:52;;;;;;;22.38;13.82;;;;;;;;;;5053911;28;20204;-63
2023/01/19 02:48:21;;;;;;;24.27;13.77;;;;;;;;;;5046450;28;20205;-63
2023/01/19 02:50:51;;;;;;;19.67;12.70;;;;;;;;;;5034747;28;20213;-63
2023/01/19 02:53:35;;;;;;;20.70;14.27;;;;;;;;;;5034465;28;20236;-65
2023/01/19 02:56:08;;;;;;;22.00;13.95;;;;;;;;;;5033490;28;20205;-64
2023/01/19 02:58:40;;;;;;;22.27;13.90;;;;;;;;;;5033685;28;20193;-65
2023/01/19 03:01:12;;;;;;;21.45;14.35;;;;;;;;;;5046450;28;20195;-61
2023/01/19 03:03:55;;;;;;;19.75;12.35;;;;;;;;;;5054509;28;20197;-62
2023/01/19 03:06:27;;;;;;;17.92;12.43;;;;;;;;;;5054163;28;20395;-63
2023/01/19 03:08:56;;;;;;;20.63;13.73;;;;;;;;;;5056410;28;20200;-63
2023/01/19 03:11:28;;;;;;;17.58;13.20;;;;;;;;;;5053899;28;20224;-63
2023/01/19 03:13:58;;;;;;;25.00;14.20;;;;;;;;;;5053900;28;20212;-62
2023/01/19 03:16:30;;;;;;;18.80;13.30;;;;;;;;;;5053452;28;20232;-62
2023/01/19 03:19:02;;;;;;;20.75;13.20;;;;;;;;;;5054145;28;20509;-63
2023/01/19 03:21:31;;;;;;;23.67;14.68;;;;;;;;;;5053071;28;20208;-63
2023/01/19 03:24:01;;;;;;;23.10;15.02;;;;;;;;;;5055513;28;20220;-63
2023/01/19 03:26:32;;;;;;;21.58;13.73;;;;;;;;;;5058711;28;20660;-62
2023/01/19 03:29:03;;;;;;;23.10;17.10;;;;;;;;;;5040910;28;20250;-63
2023/01/19 03:31:32;;;;;;;26.33;18.40;;;;;;;;;;5055877;28;20204;-62
2023/01/19 03:34:03;;;;;;;23.67;13.50;;;;;;;;;;5056171;28;20300;-63
2023/01/19 03:36:33;;;;;;;21.75;13.57;;;;;;;;;;5056992;28;20195;-62
2023/01/19 03:39:03;;;;;;;21.70;13.00;;;;;;;;;;5057218;28;20217;-63
2023/01/19 03:41:33;;;;;;;20.50;13.57;;;;;;;;;;5057524;28;20291;-63
2023/01/19 03:44:04;;;;;;;17.17;12.65;;;;;;;;;;5055765;28;20264;-62
2023/01/19 03:46:33;;;;;;;23.45;13.38;;;;;;;;;;5055472;28;20248;-63
2023/01/19 03:49:01;;;;;;;20.15;13.30;;;;;;;;;;5042125;28;20197;-63
2023/01/19 03:51:30;;;;;;;21.42;13.93;;;;;;;;;;5054465;28;20276;-64
2023/01/19 03:54:00;;;;;;;20.98;15.35;;;;;;;;;;5053089;28;20216;-63
2023/01/19 03:56:28;;;;;;;23.25;14.50;;;;;;;;;;5043388;28;20193;-62
2023/01/19 03:59:00;;;;;;;21.75;14.48;;;;;;;;;;5051069;28;20268;-63
2023/01/19 04:01:29;;;;;;;25.77;15.60;;;;;;;;;;5043940;28;20206;-63
2023/01/19 04:03:57;;;;;;;25.55;15.02;;;;;;;;;;5054054;28;20215;-63
2023/01/19 04:06:25;;;;;;;21.75;15.48;;;;;;;;;;5055376;28;20256;-63
2023/01/19 04:08:54;;;;;;;21.83;14.80;;;;;;;;;;5056212;28;20291;-63
2023/01/19 04:11:22;;;;;;;24.25;15.55;;;;;;;;;;5055211;28;20204;-63
2023/01/19 04:13:50;;;;;;;21.60;14.65;;;;;;;;;;5055241;28;20231;-63
2023/01/19 04:16:20;;;;;;;25.55;15.30;;;;;;;;;;5054065;28;20243;-63
2023/01/19 04:18:48;;;;;;;21.77;15.07;;;;;;;;;;5054946;28;20208;-63
2023/01/19 04:21:17;;;;;;;24.38;14.98;;;;;;;;;;5055187;28;20209;-63
2023/01/19 04:23:49;;;;;;;27.60;15.95;;;;;;;;;;5053800;28;20721;-63
2023/01/19 04:26:17;;;;;;;25.48;15.18;;;;;;;;;;5054893;28;20559;-63
2023/01/19 04:28:46;;;;;;;22.38;15.93;;;;;;;;;;5053721;28;20205;-63
2023/01/19 04:31:14;;;;;;;22.70;15.80;;;;;;;;;;5055113;28;20208;-63
2023/01/19 04:33:43;;;;;;;25.25;15.35;;;;;;;;;;5055215;28;20752;-63
2023/01/19 04:36:12;;;;;;;24.98;15.93;;;;;;;;;;5055614;28;20735;-63
2023/01/19 04:38:40;;;;;;;25.27;14.18;;;;;;;;;;5054133;28;20230;-64
2023/01/19 04:41:08;;;;;;;20.30;14.85;;;;;;;;;;5055084;28;20211;-63
2023/01/19 04:43:39;;;;;;;22.60;14.98;;;;;;;;;;5051007;28;20213;-62
2023/01/19 04:46:08;;;;;;;23.05;14.63;;;;;;;;;;5057329;28;20201;-63
2023/01/19 04:48:37;;;;;;;22.30;14.25;;;;;;;;;;5058101;28;20395;-63
2023/01/19 04:51:07;;;;;;;22.85;14.20;;;;;;;;;;5056879;28;20204;-64
2023/01/19 04:53:36;;;;;;;24.30;13.90;;;;;;;;;;5056142;28;20295;-64
2023/01/19 04:56:04;;;;;;;23.13;14.68;;;;;;;;;;5056135;28;21042;-62
2023/01/19 04:58:33;;;;;;;20.60;13.52;;;;;;;;;;5053494;28;20213;-63
2023/01/19 05:01:01;;;;;;;21.85;14.88;;;;;;;;;;5052652;28;20255;-64
2023/01/19 05:03:30;;;;;;;23.08;16.30;;;;;;;;;;5032476;28;20205;-62
2023/01/19 05:05:58;;;;;;;22.95;15.27;;;;;;;;;;5047182;28;20216;-62
2023/01/19 05:08:28;;;;;;;25.02;15.50;;;;;;;;;;5043178;28;20227;-62
2023/01/19 05:10:57;;;;;;;22.15;15.02;;;;;;;;;;5044074;28;20270;-62
2023/01/19 05:13:25;;;;;;;26.70;15.50;;;;;;;;;;5050939;28;20542;-63
2023/01/19 05:15:54;;;;;;;23.05;15.05;;;;;;;;;;5054233;28;20600;-62
2023/01/19 05:18:25;;;;;;;22.35;14.05;;;;;;;;;;5055200;28;20288;-63
2023/01/19 05:20:54;;;;;;;20.30;13.68;;;;;;;;;;5057253;28;20531;-62
2023/01/19 05:23:23;;;;;;;20.60;14.05;;;;;;;;;;5056465;28;20311;-62
2023/01/19 05:25:55;;;;;;;20.90;13.40;;;;;;;;;;5057081;28;20201;-63
2023/01/19 05:28:23;;;;;;;21.63;14.18;;;;;;;;;;5048868;28;20258;-63
2023/01/19 05:30:53;;;;;;;23.20;15.25;;;;;;;;;;5037304;28;20587;-63
2023/01/19 05:33:22;;;;;;;24.10;14.40;;;;;;;;;;5037208;28;20209;-63
2023/01/19 05:35:51;;;;;;;25.70;15.32;;;;;;;;;;5037221;28;20568;-62
2023/01/19 05:38:20;;;;;;;30.35;16.52;;;;;;;;;;5037532;28;20205;-62
2023/01/19 05:40:49;;;;;;;23.40;14.95;;;;;;;;;;5037556;28;20764;-62
2023/01/19 05:43:18;;;;;;;30.00;16.02;;;;;;;;;;5038106;28;20210;-62
2023/01/19 05:45:47;;;;;;;26.67;15.30;;;;;;;;;;5036346;28;20268;-62
2023/01/19 05:48:16;;;;;;;29.63;15.70;;;;;;;;;;5036144;28;20212;-61
2023/01/19 05:50:48;;;;;;;22.58;14.45;;;;;;;;;;5037983;28;20598;-62
2023/01/19 05:53:17;;;;;;;18.38;13.52;;;;;;;;;;5036912;28;20239;-62
2023/01/19 05:55:47;;;;;;;27.75;15.20;;;;;;;;;;5043082;28;20220;-62
2023/01/19 05:58:16;;;;;;;20.73;15.07;;;;;;;;;;5049409;28;20212;-62
2023/01/19 06:00:45;;;;;;;27.85;14.52;;;;;;;;;;5055012;28;20212;-61
2023/01/19 06:03:14;;;;;;;21.13;14.60;;;;;;;;;;5042200;28;20205;-62
2023/01/19 06:05:42;;;;;;;26.23;14.10;;;;;;;;;;5051518;28;20196;-62
2023/01/19 06:08:10;;;;;;;24.70;14.52;;;;;;;;;;5050244;28;20205;-62
2023/01/19 06:10:38;;;;;;;23.05;14.10;;;;;;;;;;5041749;28;20342;-63
2023/01/19 06:13:08;;;;;;;23.95;14.15;;;;;;;;;;5041084;28;20225;-62
2023/01/19 06:15:36;;;;;;;22.95;13.90;;;;;;;;;;5045868;28;20220;-62
2023/01/19 06:18:06;;;;;;;22.73;13.00;;;;;;;;;;5046973;28;20211;-60
2023/01/19 06:20:34;;;;;;;17.67;12.27;;;;;;;;;;5054232;28;20208;-62
2023/01/19 06:23:03;;;;;;;23.00;14.15;;;;;;;;;;5034831;28;20707;-62
2023/01/19 06:25:31;;;;;;;22.10;12.88;;;;;;;;;;5038731;28;20215;-62
2023/01/19 06:27:59;;;;;;;20.27;13.35;;;;;;;;;;5052371;28;20204;-62
2023/01/19 06:30:28;;;;;;;21.10;14.48;;;;;;;;;;5031988;28;20211;-63
2023/01/19 06:32:56;;;;;;;21.13;13.88;;;;;;;;;;5035721;28;20205;-61
2023/01/19 06:35:26;;;;;;;20.52;13.00;;;;;;;;;;5041063;28;20207;-63
2023/01/19 06:37:54;;;;;;;18.10;12.18;;;;;;;;;;5049215;28;20537;-62
2023/01/19 06:40:22;;;;;;;23.65;14.32;;;;;;;;;;5040072;28;20099;-63
2023/01/19 06:42:51;;;;;;;18.95;13.30;;;;;;;;;;5049519;28;20648;-64
2023/01/19 06:45:20;;;;;;;20.35;13.10;;;;;;;;;;5050464;28;20568;-64
2023/01/19 06:47:48;;;;;;;21.90;13.32;;;;;;;;;;5046420;28;20205;-62
2023/01/19 06:50:16;;;;;;;17.67;13.00;;;;;;;;;;5042807;28;20275;-63
2023/01/19 06:52:46;;;;;;;25.65;14.25;;;;;;;;;;5053146;28;20215;-63
2023/01/19 06:55:15;;;;;;;22.77;13.25;;;;;;;;;;5054288;28;20556;-61
2023/01/19 06:57:43;;;;;;;18.52;12.65;;;;;;;;;;5053238;28;20209;-62
2023/01/19 07:00:14;;;;;;;23.20;13.40;;;;;;;;;;5052737;28;20185;-63
2023/01/19 07:02:45;;;;;;;21.33;13.98;;;;;;;;;;5052553;28;20586;-62
2023/01/19 07:05:13;;;;;;;20.80;12.82;;;;;;;;;;5052740;28;20239;-61
2023/01/19 07:07:43;;;;;;;24.23;13.32;;;;;;;;;;5046011;28;20202;-60
2023/01/19 07:10:16;;;;;;;22.90;15.13;;;;;;;;;;5053899;28;20189;-62
2023/01/19 07:12:46;;;;;;;19.42;13.20;;;;;;;;;;5052635;28;20204;-60
2023/01/19 07:15:14;;;;;;;25.60;14.60;;;;;;;;;;5052220;28;20239;-62
2023/01/19 07:17:45;;;;;;;20.30;13.20;;;;;;;;;;5052363;28;20197;-63
2023/01/19 07:20:16;;;;;;;24.20;14.15;;;;;;;;;;5053865;28;20204;-63
2023/01/19 07:22:45;;;;;;;22.25;13.63;;;;;;;;;;5053190;28;20675;-63
2023/01/19 07:25:13;;;;;;;18.15;13.05;;;;;;;;;;5053549;28;20391;-63
2023/01/19 07:27:43;;;;;;;25.27;13.85;;;;;;;;;;5052544;28;20690;-65
2023/01/19 07:30:12;;;;;;;17.65;13.38;;;;;;;;;;5053655;28;20213;-64
2023/01/19 07:32:43;;;;;;;20.00;13.02;;;;;;;;;;5052679;28;20238;-64
2023/01/19 07:35:20;;;;;;;17.08;12.43;;;;;;;;;;5053395;28;20200;-63
2023/01/19 07:37:48;;;;;;;20.77;12.73;;;;;;;;;;5052667;28;20205;-64
2023/01/19 07:40:17;;;;;;;16.35;11.50;;;;;;;;;;5052436;28;20212;-64
2023/01/19 07:42:50;;;;;;;21.30;13.25;;;;;;;;;;5047750;28;20213;-64
2023/01/19 07:45:19;;;;;;;19.85;13.18;;;;;;;;;;5052988;28;20208;-63
2023/01/19 07:47:49;;;;;;;21.63;13.38;;;;;;;;;;5053032;28;20215;-64
2023/01/19 07:50:20;;;;;;;19.13;12.07;;;;;;;;;;5052911;28;20569;-64
2023/01/19 07:52:50;;;;;;;20.42;13.00;;;;;;;;;;5052262;28;20204;-64
2023/01/19 07:55:18;;;;;;;20.48;13.90;;;;;;;;;;5052516;28;20188;-64
2023/01/19 07:57:50;;;;;;;20.05;13.52;;;;;;;;;;5052611;28;20214;-64
2023/01/19 08:00:20;;;;;;;20.75;12.20;;;;;;;;;;5050898;28;20238;-64
2023/01/19 08:02:50;;;;;;;19.23;12.38;;;;;;;;;;5051581;28;20215;-63
2023/01/19 08:05:18;;;;;;;25.48;14.38;;;;;;;;;;5051610;28;20226;-63
2023/01/19 08:07:47;;;;;;;18.85;12.48;;;;;;;;;;5052635;28;20201;-64
2023/01/19 08:10:15;;;;;;;21.30;13.85;;;;;;;;;;5052579;28;20228;-63
2023/01/19 08:12:43;;;;;;;18.65;12.90;;;;;;;;;;5051349;28;20201;-64
2023/01/19 08:15:14;;;;;;;21.30;12.57;;;;;;;;;;5052217;28;20234;-64
2023/01/19 08:17:42;;;;;;;16.38;12.82;;;;;;;;;;5052837;28;20188;-64
2023/01/19 08:20:11;;;;;;;19.50;12.50;;;;;;;;;;5052730;28;20608;-63
2023/01/19 08:22:40;;;;;;;20.02;12.95;;;;;;;;;;5051479;28;20224;-64
2023/01/19 08:25:08;;;;;;;21.58;14.13;;;;;;;;;;5052028;28;20638;-64
2023/01/19 08:27:37;;;;;;;22.75;13.80;;;;;;;;;;5052792;28;20671;-64
2023/01/19 08:30:05;;;;;;;21.83;13.75;;;;;;;;;;5051848;28;20362;-64
2023/01/19 08:32:35;;;;;;;24.27;14.57;;;;;;;;;;5051943;28;20200;-63
2023/01/19 08:35:06;;;;;;;21.52;13.82;;;;;;;;;;5045791;28;20224;-63
2023/01/19 08:37:34;;;;;;;30.33;14.50;;;;;;;;;;5038618;28;20464;-64
2023/01/19 08:40:03;;;;;;;19.70;13.02;;;;;;;;;;5051176;28;20208;-63
2023/01/19 08:42:31;;;;;;;22.10;13.88;;;;;;;;;;5051907;28;20223;-63
2023/01/19 08:44:59;;;;;;;20.33;13.52;;;;;;;;;;5051883;28;20204;-64
2023/01/19 08:47:30;;;;;;;24.77;13.52;;;;;;;;;;5051645;28;20268;-64
2023/01/19 08:49:59;;;;;;;22.77;13.40;;;;;;;;;;5051945;28;20204;-62
2023/01/19 08:52:28;;;;;;;23.60;14.82;;;;;;;;;;5050129;28;20672;-62
2023/01/19 08:54:56;;;;;;;23.25;14.15;;;;;;;;;;5049117;28;20579;-62
2023/01/19 08:57:24;;;;;;;21.13;14.00;;;;;;;;;;5055260;28;20200;-63
2023/01/19 08:59:53;;;;;;;19.35;14.20;;;;;;;;;;5054923;28;20208;-63
2023/01/19 09:02:21;;;;;;;24.85;13.95;;;;;;;;;;5054133;28;20579;-63
2023/01/19 09:04:50;;;;;;;25.63;14.90;;;;;;;;;;5054183;28;20577;-63
2023/01/19 09:07:20;;;;;;;21.45;13.75;;;;;;;;;;5054693;28;20220;-63
2023/01/19 09:09:48;;;;;;;21.27;12.40;;;;;;;;;;5055357;28;20208;-63
2023/01/19 09:12:17;;;;;;;21.33;13.43;;;;;;;;;;5055468;28;20200;-63
2023/01/19 09:14:45;;;;;;;25.60;15.15;;;;;;;;;;5055356;28;20204;-63
2023/01/19 09:17:16;;;;;;;22.75;13.88;;;;;;;;;;5055220;28;20207;-62
2023/01/19 09:19:44;;;;;;;35.35;14.23;;;;;;;;;;5054999;28;20196;-62
2023/01/19 09:22:12;;;;;;;21.77;13.10;;;;;;;;;;5054001;28;20231;-60
2023/01/19 09:24:42;;;;;;;21.58;13.43;;;;;;;;;;5055319;28;20201;-63
2023/01/19 09:27:10;;;;;;;22.77;15.70;;;;;;;;;;5053870;28;20227;-63
2023/01/19 09:29:38;;;;;;;22.35;12.60;;;;;;;;;;5053910;28;20212;-64
2023/01/19 09:32:06;;;;;;;26.30;15.27;;;;;;;;;;5055463;28;20212;-64
2023/01/19 09:34:34;;;;;;;23.67;15.25;;;;;;;;;;5054317;28;20209;-63
2023/01/19 09:37:02;;;;;;;17.48;12.55;;;;;;;;;;5055608;28;20262;-63
2023/01/19 09:39:30;;;;;;;22.90;14.73;;;;;;;;;;5054114;28;20199;-62
2023/01/19 09:42:04;;;;;;;22.98;14.13;;;;;;;;;;5054058;28;20576;-64
2023/01/19 09:44:34;;;;;;;19.45;13.40;;;;;;;;;;5054068;28;20187;-64
2023/01/19 09:47:02;;;;;;;20.65;14.07;;;;;;;;;;5054770;28;20224;-65
2023/01/19 09:49:32;;;;;;;33.95;18.42;;;;;;;;;;5054099;28;20211;-63
2023/01/19 09:52:00;;;;;;;18.70;13.45;;;;;;;;;;5054854;28;20205;-63
2023/01/19 09:54:32;;;;;;;23.08;14.45;;;;;;;;;;5052866;28;20619;-63
2023/01/19 09:57:02;;;;;;;19.70;13.75;;;;;;;;;;5053934;28;20553;-62
2023/01/19 09:59:31;;;;;;;18.63;14.32;;;;;;;;;;5053145;28;20208;-64
2023/01/19 10:02:17;;;;;;;22.70;13.88;;;;;;;;;;5053834;28;20205;-64
2023/01/19 10:04:51;;;;;;;22.42;12.98;;;;;;;;;;5052952;28;20606;-64
2023/01/19 10:07:25;;;;;;;25.27;17.23;;;;;;;;;;5054545;28;20205;-62
2023/01/19 10:10:09;;;;;;;21.80;14.32;;;;;;;;;;5052785;28;20223;-63
2023/01/19 10:12:44;;;;;;;18.20;12.30;;;;;;;;;;5053435;28;20564;-61
2023/01/19 10:15:16;;;;;;;21.10;12.57;;;;;;;;;;5053714;28;20223;-60
2023/01/19 10:17:51;;;;;;;19.35;13.52;;;;;;;;;;5054606;28;20188;-63
2023/01/19 10:20:24;;;;;;;21.50;12.88;;;;;;;;;;5053830;28;20192;-61
2023/01/19 10:22:53;;;;;;;21.85;13.10;;;;;;;;;;5054495;28;20228;-62
2023/01/19 10:25:23;;;;;;;19.13;11.80;;;;;;;;;;5054279;28;20262;-61
2023/01/19 10:27:53;;;;;;;18.27;12.40;;;;;;;;;;5053574;28;20204;-60
2023/01/19 10:30:23;;;;;;;20.77;12.80;;;;;;;;;;5053165;28;20614;-61
2023/01/19 10:32:52;;;;;;;18.83;11.55;;;;;;;;;;5054002;28;20196;-61
2023/01/19 10:35:24;;;;;;;19.48;11.38;;;;;;;;;;5054282;28;20200;-61
2023/01/19 10:37:54;;;;;;;17.58;11.63;;;;;;;;;;5053867;28;20188;-61
2023/01/19 10:40:27;;;;;;;25.40;12.57;;;;;;;;;;5054032;28;20189;-61
2023/01/19 10:42:56;;;;;;;18.33;11.35;;;;;;;;;;5053524;28;20258;-61
2023/01/19 10:45:27;;;;;;;18.13;11.77;;;;;;;;;;5050866;28;20208;-60
2023/01/19 10:47:56;;;;;;;18.52;12.23;;;;;;;;;;5050479;28;20277;-60
2023/01/19 10:50:25;;;;;;;19.08;11.43;;;;;;;;;;5053624;28;20219;-60
2023/01/19 10:52:55;;;;;;;25.55;12.43;;;;;;;;;;5053053;28;20204;-60
2023/01/19 10:55:28;;;;;;;17.83;13.27;;;;;;;;;;5050165;28;20229;-60
2023/01/19 10:57:57;;;;;;;17.27;11.73;;;;;;;;;;5051317;28;20615;-61
2023/01/19 11:00:31;;;;;;;18.35;11.90;;;;;;;;;;5053306;28;20238;-61
2023/01/19 11:02:59;;;;;;;29.00;12.00;;;;;;;;;;5052157;28;20519;-61
2023/01/19 11:05:28;;;;;;;19.40;11.02;;;;;;;;;;5053957;28;20208;-61
2023/01/19 11:07:57;;;;;;;15.15;11.30;;;;;;;;;;5050467;28;20224;-61
2023/01/19 11:10:27;;;;;;;14.90;10.25;;;;;;;;;;5056722;28;20231;-60
2023/01/19 11:13:02;;;;;;;16.63;11.45;;;;;;;;;;5056549;28;20260;-61
2023/01/19 11:15:32;;;;;;;19.70;10.95;;;;;;;;;;5051447;28;20236;-62
2023/01/19 11:18:00;;;;;;;17.67;11.73;;;;;;;;;;5055170;28;20206;-61
2023/01/19 11:20:30;;;;;;;19.80;11.45;;;;;;;;;;5056031;28;20303;-61
2023/01/19 11:23:05;;;;;;;15.07;10.45;;;;;;;;;;5055109;28;20315;-62
2023/01/19 11:25:34;;;;;;;14.00;11.05;;;;;;;;;;5055621;28;20241;-61
2023/01/19 11:28:04;;;;;;;14.73;10.63;;;;;;;;;;5055723;28;20216;-61
2023/01/19 11:30:32;;;;;;;13.98;10.95;;;;;;;;;;5053772;28;20492;-61
2023/01/19 11:33:00;;;;;;;19.63;12.32;;;;;;;;;;5052463;28;20215;-61
2023/01/19 11:35:32;;;;;;;15.77;10.07;;;;;;;;;;5051648;28;20196;-61
2023/01/19 11:38:27;;;;;;;14.18;9.65;;;;;;;;;;5050451;28;20200;-60
2023/01/19 11:41:03;;;;;;;14.55;11.05;;;;;;;;;;5024840;28;20200;-62
2023/01/19 11:43:32;;;;;;;18.95;11.35;;;;;;;;;;5048418;28;20200;-61
2023/01/19 11:46:02;;;;;;;16.95;11.57;;;;;;;;;;5044411;28;20200;-64
2023/01/19 11:48:33;;;;;;;16.88;11.00;;;;;;;;;;5041955;28;20550;-63
2023/01/19 11:51:03;;;;;;;18.95;11.30;;;;;;;;;;5040620;28;20189;-63
2023/01/19 11:53:33;;;;;;;18.17;11.80;;;;;;;;;;5040531;28;20193;-63
2023/01/19 11:56:03;;;;;;;14.32;10.75;;;;;;;;;;5040396;28;20189;-63
2023/01/19 11:58:37;;;;;;;19.10;12.38;;;;;;;;;;5043648;28;20196;-63
2023/01/19 12:01:07;;;;;;;20.73;11.25;;;;;;;;;;5051752;28;20191;-62
2023/01/19 12:03:38;;;;;;;17.27;11.40;;;;;;;;;;5051909;28;20200;-63
2023/01/19 12:06:08;;;;;;;16.77;11.50;;;;;;;;;;5052125;28;20606;-62
2023/01/19 12:08:37;;;;;;;19.73;11.35;;;;;;;;;;5051406;28;20287;-62
2023/01/19 12:11:06;;;;;;;16.45;11.27;;;;;;;;;;5052068;28;20207;-63
2023/01/19 12:13:36;;;;;;;13.35;10.30;;;;;;;;;;5052404;28;20204;-63
2023/01/19 12:16:08;;;;;;;23.42;12.55;;;;;;;;;;5051976;28;20560;-63
2023/01/19 12:18:38;;;;;;;22.38;13.45;;;;;;;;;;5052231;28;20266;-63
2023/01/19 12:21:06;;;;;;;17.40;12.00;;;;;;;;;;5052678;28;20197;-64
2023/01/19 12:23:52;;;;;;;15.50;12.05;;;;;;;;;;5052355;28;20228;-62
2023/01/19 12:26:28;;;;;;;17.13;12.15;;;;;;;;;;5051783;28;20388;-63
2023/01/19 12:29:00;;;;;;;16.58;10.60;;;;;;;;;;5054932;28;20214;-62
2023/01/19 12:31:28;;;;;;;14.15;11.07;;;;;;;;;;5044934;28;20193;-63
2023/01/19 12:34:16;;;;;;;13.57;10.18;;;;;;;;;;5043326;28;20207;-63
2023/01/19 12:36:47;;;;;;;15.18;11.57;;;;;;;;;;5043242;28;20205;-64
2023/01/19 12:39:17;;;;;;;18.67;14.00;;;;;;;;;;5037534;28;20190;-63
2023/01/19 12:41:46;;;;;;;21.75;10.90;;;;;;;;;;5050472;28;20659;-62
2023/01/19 12:44:21;;;;;;;20.25;11.90;;;;;;;;;;5051262;28;20201;-62
2023/01/19 12:46:51;;;;;;;14.73;10.80;;;;;;;;;;5036388;28;20212;-62
2023/01/19 12:49:25;;;;;;;17.60;11.40;;;;;;;;;;5050586;28;20277;-62
2023/01/19 12:51:56;;;;;;;15.23;10.20;;;;;;;;;;5040999;28;20258;-62
2023/01/19 12:54:28;;;;;;;15.68;11.05;;;;;;;;;;5036361;28;20197;-62
2023/01/19 12:56:58;;;;;;;13.23;10.18;;;;;;;;;;5040591;28;20224;-62
2023/01/19 12:59:27;;;;;;;15.00;10.23;;;;;;;;;;5050218;28;20185;-62
2023/01/19 13:02:14;;;;;;;18.95;11.60;;;;;;;;;;5035551;28;20194;-62
2023/01/19 13:05:02;;;;;;;16.10;10.57;;;;;;;;;;5048669;28;20197;-62
2023/01/19 13:07:31;;;;;;;16.55;11.55;;;;;;;;;;5045698;28;20197;-62
2023/01/19 13:09:59;;;;;;;16.20;11.55;;;;;;;;;;5047920;28;20201;-62
2023/01/19 13:12:28;;;;;;;13.05;9.98;;;;;;;;;;5043761;28;20201;-62
2023/01/19 13:15:14;;;;;;;13.50;10.52;;;;;;;;;;5045237;28;20684;-62
2023/01/19 13:17:48;;;;;;;15.32;10.38;;;;;;;;;;5039849;28;20201;-62
2023/01/19 13:20:27;;;;;;;17.90;9.90;;;;;;;;;;5036195;28;20188;-63
2023/01/19 13:23:13;;;;;;;12.27;8.65;;;;;;;;;;5034547;28;20225;-62
2023/01/19 13:25:43;;;;;;;12.07;8.55;;;;;;;;;;5036113;28;20277;-63
2023/01/19 13:28:14;;;;;;;11.20;7.90;;;;;;;;;;5035515;28;20236;-63
2023/01/19 13:30:48;;;;;;;13.20;9.10;;;;;;;;;;5047154;28;20193;-62
2023/01/19 13:33:20;;;;;;;13.85;8.68;;;;;;;;;;5058936;28;20192;-63
2023/01/19 13:35:50;;;;;;;12.25;9.52;;;;;;;;;;5058978;28;20280;-63
2023/01/19 13:38:19;;;;;;;11.77;9.50;;;;;;;;;;5059558;28;20551;-63
2023/01/19 13:40:49;;;;;;;9.77;8.55;;;;;;;;;;5057701;28;20223;-62
2023/01/19 13:43:19;;;;;;;9.57;8.50;;;;;;;;;;5058643;28;20667;-63
2023/01/19 13:45:48;;;;;;;12.05;8.30;;;;;;;;;;5053282;28;20212;-63
2023/01/19 13:48:17;;;;;;;10.23;9.20;;;;;;;;;;5044168;28;20300;-64
2023/01/19 13:50:57;;;;;;;10.50;7.57;;;;;;;;;;5045155;28;20636;-62
2023/01/19 13:53:25;;;;;;;10.55;7.38;;;;;;;;;;5051360;28;20205;-63
2023/01/19 13:56:07;;;;;;;10.43;8.20;;;;;;;;;;5045534;28;20208;-63
2023/01/19 13:58:37;;;;;;;13.35;6.80;;;;;;;;;;5024007;28;20197;-63
2023/01/19 14:01:06;;;;;;;9.05;7.65;;;;;;;;;;5047880;28;20287;-62
2023/01/19 14:03:34;;;;;;;10.95;7.88;;;;;;;;;;5054649;28;20208;-64
2023/01/19 14:06:02;;;;;;;12.85;7.32;;;;;;;;;;5054168;28;20205;-63
2023/01/19 14:08:31;;;;;;;10.18;6.55;;;;;;;;;;5055875;28;20703;-63
2023/01/19 14:11:03;;;;;;;13.52;7.07;;;;;;;;;;5055496;28;20544;-63
2023/01/19 14:13:31;;;;;;;10.02;7.57;;;;;;;;;;5054070;28;20209;-64
2023/01/19 14:16:04;;;;;;;10.23;6.40;;;;;;;;;;5054702;28;20236;-63
2023/01/19 14:18:33;;;;;;;18.02;7.20;;;;;;;;;;5055251;28;20184;-64
2023/01/19 14:21:02;;;;;;;10.75;6.90;;;;;;;;;;5054475;28;20567;-63
2023/01/19 14:23:48;;;;;;;9.73;6.40;;;;;;;;;;5055062;28;20231;-64
2023/01/19 14:26:35;;;;;;;7.68;6.15;;;;;;;;;;5055006;28;20189;-64
2023/01/19 14:29:07;;;;;;;23.15;6.90;;;;;;;;;;5055505;28;20573;-62
2023/01/19 14:31:43;;;;;;;10.88;7.00;;;;;;;;;;5054196;28;20656;-62
2023/01/19 14:34:25;;;;;;;12.40;5.32;;;;;;;;;;5055266;28;20181;-63
2023/01/19 14:36:54;;;;;;;18.20;5.55;;;;;;;;;;5054158;28;20204;-64
2023/01/19 14:39:23;;;;;;;7.22;5.28;;;;;;;;;;5053808;28;20200;-63
2023/01/19 14:41:52;;;;;;;6.20;5.60;;;;;;;;;;5047200;28;20205;-64
2023/01/19 14:44:24;;;;;;;10.13;6.82;;;;;;;;;;5043245;28;20193;-63